Nearby METAR Reports

 

EGQL - Leuchars Raf, United Kingdom
Distance from station: SW 17km
Updated: 18/11/2019 21:50
Clear
Clear
 Wind from NW
Wind: NW 2 km/h
Temperature: -3°C
Dew Point: -3°C
Humidity: 100%
Barometer: 1014 hPa
Summary: Clear
Visibility: greater than 10 km
2019/11/19 05:50 EGQL 190550Z 31001KT CAVOK M03/M03 Q1014 BLU
EGPN - Dundee/Riverside, United Kingdom
Distance from station: WSW 20km
Updated: 18/11/2019 12:50
NOT Current
Clear
Clear
 Wind from WNW
Wind: WNW 4 km/h
Temperature: -2°C
Dew Point: -2°C
Humidity: 100%
Barometer: 1017 hPa
Summary: Clear
Visibility: greater than 10 km
2019/11/18 20:50 EGPN 182050Z 30002KT CAVOK M02/M02 Q1017
 
EGPH - Edinburgh Airpor, United Kingdom
Distance from station: SSW 74km
Updated: 18/11/2019 21:50
Clear
Clear
 Wind from SE
Wind: SE 2 km/h
Temperature: -5°C
Dew Point: -5°C
Humidity: 100%
Barometer: 1014 hPa
Summary: Clear
Visibility: greater than 10 km
2019/11/19 05:50 EGPH 190550Z 13001KT CAVOK M05/M05 Q1014
EGPD - Aberdeen/Dyce, United Kingdom
Distance from station: NNE 82km
Updated: 18/11/2019 21:50
Clear
Clear
 Wind from varies
Wind: varies 2 km/h
Temperature: -5°C
Dew Point: -6°C
Humidity: 93%
Barometer: 1014 hPa
Clouds: Clear
Visibility: 10 km
2019/11/19 05:50 EGPD 190550Z AUTO VRB01KT 9999 NCD M05/M06 Q1014 NOSIG